Time;durP1;ratioP1;P1;durP2;ratioP2;P2;SDS_P1;SDS_P2;PMS_P1;PMS_P2;Temp;Humidity;BMP_temperature;BMP_pressure;BME280_temperature;BME280_humidity;BME280_pressure;Samples;Min_cycle;Max_cycle;Signal;HPM_P1;HPM_P2
2022/06/23 00:00:31;;;;;;;8.75;5.93;;;;;;;22.28;72.75;94181.03;5036172;28;20202;-60
2022/06/23 00:02:58;;;;;;;13.35;5.93;;;;;;;22.25;72.40;94190.03;5054078;28;20170;-60
2022/06/23 00:05:27;;;;;;;10.80;6.00;;;;;;;22.22;73.29;94179.31;5053678;28;20207;-61
2022/06/23 00:07:57;;;;;;;8.25;5.45;;;;;;;22.14;73.07;94187.34;5054190;28;20651;-62
2022/06/23 00:10:38;;;;;;;10.68;6.18;;;;;;;22.27;73.20;94188.00;5060819;22;20229;-62
2022/06/23 00:13:16;;;;;;;7.78;5.32;;;;;;;22.20;73.73;94179.50;5053820;28;20192;-60
2022/06/23 00:15:43;;;;;;;11.50;5.55;;;;;;;22.30;73.67;94171.25;5060938;22;20230;-61
2022/06/23 00:18:21;;;;;;;10.43;5.80;;;;;;;22.13;73.58;94178.75;5053486;28;20178;-61
2022/06/23 00:20:52;;;;;;;11.38;5.47;;;;;;;22.20;73.90;94171.72;5053690;28;20189;-60
2022/06/23 00:23:38;;;;;;;11.07;5.20;;;;;;;22.10;73.38;94189.53;5053716;28;20236;-61
2022/06/23 00:26:19;;;;;;;11.05;4.97;;;;;;;22.16;74.59;94175.75;5035606;28;20198;-60
2022/06/23 00:28:52;;;;;;;10.57;5.43;;;;;;;22.20;73.78;94182.09;5053713;28;20189;-59
2022/06/23 00:31:34;;;;;;;12.95;6.07;;;;;;;22.21;74.27;94173.31;5053216;28;20687;-61
2022/06/23 00:34:03;;;;;;;6.78;5.18;;;;;;;22.29;75.03;94159.31;5053815;28;20339;-60
2022/06/23 00:36:41;;;;;;;9.23;5.88;;;;;;;22.28;74.50;94162.91;5053312;28;20228;-61
2022/06/23 00:39:39;;;;;;;8.73;5.88;;;;;;;22.25;75.58;94135.63;5053653;28;20177;-60
2022/06/23 00:42:17;;;;;;;9.23;5.68;;;;;;;22.22;73.76;94156.75;5053127;28;20581;-59
2022/06/23 00:45:10;;;;;;;12.35;5.70;;;;;;;22.20;74.07;94129.50;5053796;28;20261;-61
2022/06/23 00:47:53;;;;;;;10.15;6.13;;;;;;;22.22;73.99;94119.72;5053297;28;20178;-60
2022/06/23 00:50:37;;;;;;;7.63;5.22;;;;;;;22.12;74.72;94117.59;5053040;28;20213;-61
2022/06/23 00:53:11;;;;;;;8.48;5.25;;;;;;;22.02;75.64;94127.66;5052980;28;20189;-61
2022/06/23 00:55:52;;;;;;;10.43;5.38;;;;;;;22.20;74.88;94145.81;5052814;28;20204;-60
2022/06/23 00:58:29;;;;;;;8.57;5.22;;;;;;;22.05;75.48;94129.03;5053158;28;20624;-63
2022/06/23 01:01:02;;;;;;;9.07;5.65;;;;;;;22.01;75.46;94146.00;5053058;28;20194;-61
2022/06/23 01:03:32;;;;;;;9.75;5.75;;;;;;;22.03;75.39;94144.00;5053164;28;20233;-59
2022/06/23 01:06:13;;;;;;;7.70;6.05;;;;;;;21.91;75.23;94153.44;5052785;28;20280;-61
2022/06/23 01:08:55;;;;;;;8.68;5.65;;;;;;;21.82;76.21;94129.63;5053086;28;20636;-61
2022/06/23 01:11:36;;;;;;;9.23;5.63;;;;;;;21.84;75.69;94144.94;5052421;28;20300;-60
2022/06/23 01:14:38;;;;;;;9.65;6.35;;;;;;;21.77;75.58;94151.94;5052861;28;20194;-59
2022/06/23 01:17:14;;;;;;;8.68;5.95;;;;;;;21.82;75.37;94150.31;5052354;28;20177;-60
2022/06/23 01:19:57;;;;;;;7.88;5.30;;;;;;;21.66;76.87;94122.34;5052767;28;20191;-63
2022/06/23 01:22:38;;;;;;;9.40;5.85;;;;;;;21.43;77.46;94122.13;5033539;28;20182;-63
2022/06/23 01:25:35;;;;;;;10.73;5.65;;;;;;;21.53;78.17;94106.94;5034824;28;20210;-61
2022/06/23 01:28:13;;;;;;;12.27;5.72;;;;;;;21.74;77.02;94119.50;5034612;28;20530;-61
2022/06/23 01:31:02;;;;;;;9.73;6.18;;;;;;;21.70;77.33;94113.97;5052283;28;20651;-60
2022/06/23 01:34:07;;;;;;;10.10;5.78;;;;;;;21.66;78.50;94105.03;5034606;28;20221;-62
2022/06/23 01:36:43;;;;;;;9.18;5.68;;;;;;;21.67;79.68;94095.47;5040926;28;20210;-61
2022/06/23 01:39:17;;;;;;;9.50;5.97;;;;;;;21.64;79.35;94109.63;5052464;28;20185;-60
2022/06/23 01:41:56;;;;;;;6.50;5.45;;;;;;;21.73;79.28;94107.56;5034197;28;20205;-60
2022/06/23 01:44:45;;;;;;;8.50;5.78;;;;;;;21.70;78.19;94108.78;5052553;28;20185;-61
2022/06/23 01:47:22;;;;;;;7.57;5.53;;;;;;;21.57;79.02;94097.75;5052347;28;20177;-60
2022/06/23 01:49:52;;;;;;;7.43;5.70;;;;;;;21.61;78.98;94097.09;5052353;28;20710;-61
2022/06/23 01:52:20;;;;;;;6.28;5.32;;;;;;;21.63;78.78;94100.25;5052038;28;20169;-61
2022/06/23 01:55:01;;;;;;;11.02;6.40;;;;;;;21.57;79.01;94092.56;5052258;28;20259;-61
2022/06/23 01:57:48;;;;;;;10.15;6.35;;;;;;;21.53;79.46;94087.00;5052141;28;20165;-61
2022/06/23 02:00:18;;;;;;;7.85;5.90;;;;;;;21.65;79.35;94082.72;5052342;28;20296;-60
2022/06/23 02:03:09;;;;;;;6.70;5.72;;;;;;;21.67;79.50;94079.94;5052253;28;20185;-63
2022/06/23 02:05:50;;;;;;;9.50;6.38;;;;;;;21.79;79.54;94082.63;5033898;28;20201;-60
2022/06/23 02:08:35;;;;;;;9.55;6.20;;;;;;;21.75;79.07;94079.69;5051787;28;20695;-64
2022/06/23 02:11:12;;;;;;;10.52;6.43;;;;;;;21.55;79.71;94077.25;5051870;28;20201;-61
2022/06/23 02:13:47;;;;;;;10.15;6.30;;;;;;;21.41;80.29;94078.34;5051822;28;20268;-63
2022/06/23 02:16:35;;;;;;;9.23;6.53;;;;;;;21.19;82.47;94060.81;5051791;28;20199;-62
2022/06/23 02:19:26;;;;;;;9.73;6.07;;;;;;;21.27;82.99;94074.25;5051259;28;20667;-62
2022/06/23 02:22:00;;;;;;;8.15;6.05;;;;;;;21.31;83.85;94070.25;5051764;28;20201;-61
2022/06/23 02:24:44;;;;;;;11.05;6.40;;;;;;;21.05;85.93;94065.25;5058537;22;20383;-60
2022/06/23 02:27:22;;;;;;;11.38;6.07;;;;;;;20.99;83.97;94073.78;5031701;28;20617;-60
2022/06/23 02:30:42;;;;;;;9.52;6.13;;;;;;;20.83;84.57;94069.09;5035739;28;20261;-60
2022/06/23 02:33:33;;;;;;;9.48;5.93;;;;;;;20.84;85.16;94068.13;4958606;28;20196;-61
2022/06/23 02:36:04;;;;;;;13.18;6.65;;;;;;;20.80;85.05;94082.44;5035886;28;20194;-60
2022/06/23 02:38:36;;;;;;;11.35;6.80;;;;;;;20.72;85.38;94080.09;5036102;28;20233;-61
2022/06/23 02:41:02;;;;;;;8.27;5.72;;;;;;;20.73;85.96;94081.69;5035575;28;20761;-61
2022/06/23 02:43:38;;;;;;;12.13;7.15;;;;;;;20.70;86.36;94080.31;5035893;28;20194;-61
2022/06/23 02:46:15;;;;;;;12.73;6.88;;;;;;;20.63;87.37;94091.66;5035560;28;20200;-61
2022/06/23 02:49:05;;;;;;;14.98;6.78;;;;;;;20.54;86.96;94093.66;5035928;28;20277;-62
2022/06/23 02:52:12;;;;;;;14.30;6.90;;;;;;;20.41;87.11;94096.31;5013993;28;20249;-62
2022/06/23 02:55:11;;;;;;;11.10;6.75;;;;;;;20.36;88.56;94108.25;5015836;28;20186;-60
2022/06/23 02:58:02;;;;;;;10.70;6.00;;;;;;;20.19;90.36;94104.47;5015679;28;20167;-60
2022/06/23 03:00:33;;;;;;;11.13;6.50;;;;;;;20.16;90.95;94118.56;5015951;28;20207;-62
2022/06/23 03:03:19;;;;;;;10.52;6.82;;;;;;;20.24;90.91;94117.59;5015388;28;20274;-63
2022/06/23 03:05:54;;;;;;;9.73;6.72;;;;;;;20.34;91.05;94117.97;5015065;28;20222;-59
2022/06/23 03:08:34;;;;;;;11.52;6.60;;;;;;;20.37;91.62;94131.28;5015433;28;20174;-60
2022/06/23 03:11:08;;;;;;;13.70;7.70;;;;;;;20.36;91.40;94128.91;5015404;28;20225;-63
2022/06/23 03:13:34;;;;;;;11.35;7.13;;;;;;;20.44;91.09;94133.84;5015311;28;20207;-64
2022/06/23 03:16:05;;;;;;;13.25;7.47;;;;;;;20.45;91.05;94130.25;5015069;28;20691;-63
2022/06/23 03:18:48;;;;;;;10.85;6.57;;;;;;;20.50;90.85;94133.03;5015289;28;20183;-63
2022/06/23 03:21:45;;;;;;;11.65;7.50;;;;;;;20.52;89.99;94133.63;5030136;28;20213;-62
2022/06/23 03:24:29;;;;;;;11.93;7.38;;;;;;;20.45;91.04;94128.47;5000804;28;20240;-62
2022/06/23 03:27:04;;;;;;;10.88;7.90;;;;;;;20.51;90.79;94121.69;5015174;28;20289;-61
2022/06/23 03:29:41;;;;;;;13.25;7.45;;;;;;;20.54;91.19;94121.31;5015258;28;20182;-61
2022/06/23 03:32:27;;;;;;;8.35;7.13;;;;;;;20.79;90.11;94114.44;5014977;28;20625;-63
2022/06/23 03:35:14;;;;;;;12.77;7.55;;;;;;;20.70;90.54;94118.28;5015292;28;20191;-62
2022/06/23 03:37:51;;;;;;;8.45;7.45;;;;;;;20.70;90.33;94106.16;5014864;28;20178;-61
2022/06/23 03:43:31;;;;;;;12.00;6.57;;;;;;;20.62;90.69;94103.81;5014680;28;20186;-61
2022/06/23 03:46:07;;;;;;;12.40;8.15;;;;;;;20.71;91.75;94110.31;5014682;28;20209;-60
2022/06/23 03:48:59;;;;;;;10.88;8.02;;;;;;;20.70;92.40;94110.53;5014612;28;20232;-61
2022/06/23 03:51:30;;;;;;;12.05;7.55;;;;;;;20.81;91.38;94104.69;5014304;28;20237;-61
2022/06/23 03:54:00;;;;;;;11.27;7.70;;;;;;;20.76;91.67;94110.50;5013115;28;20187;-61
2022/06/23 03:56:36;;;;;;;8.95;7.05;;;;;;;20.65;92.63;94111.13;5014238;28;20265;-61
2022/06/23 03:59:12;;;;;;;12.32;6.72;;;;;;;20.35;94.27;94137.63;5058437;22;20302;-60
2022/06/23 04:01:56;;;;;;;12.70;7.65;;;;;;;20.28;94.51;94126.53;5054117;28;20662;-60
2022/06/23 04:04:25;;;;;;;12.65;7.70;;;;;;;20.31;94.34;94126.91;5053995;28;20644;-61
2022/06/23 04:06:52;;;;;;;11.40;7.18;;;;;;;20.40;93.07;94124.91;5053922;28;20201;-60
2022/06/23 04:09:20;;;;;;;9.27;6.35;;;;;;;20.39;93.24;94124.13;5054083;28;20185;-60
2022/06/23 04:11:48;;;;;;;11.50;7.30;;;;;;;20.36;92.85;94136.66;5053960;28;20251;-61
2022/06/23 04:14:40;;;;;;;12.18;6.85;;;;;;;20.36;92.57;94139.22;5053477;28;20264;-60
2022/06/23 04:17:15;;;;;;;9.95;6.95;;;;;;;20.51;92.90;94132.81;5053337;28;20240;-60
2022/06/23 04:19:55;;;;;;;11.68;7.07;;;;;;;20.59;92.56;94136.97;5053729;28;20252;-60
2022/06/23 04:22:37;;;;;;;14.88;7.88;;;;;;;20.62;92.51;94150.28;5054038;28;20208;-60
2022/06/23 04:25:05;;;;;;;10.95;6.85;;;;;;;20.77;91.42;94147.44;5053655;28;20193;-64
2022/06/23 04:27:39;;;;;;;12.02;6.80;;;;;;;21.02;89.76;94142.41;5060563;22;20233;-63
2022/06/23 04:30:05;;;;;;;9.95;6.38;;;;;;;20.96;89.76;94150.97;5053943;28;20240;-63
2022/06/23 04:32:35;;;;;;;12.88;6.50;;;;;;;21.14;100.00;94154.50;5053820;28;20194;-63
2022/06/23 04:35:20;;;;;;;12.10;6.45;;;;;;;21.34;100.00;94134.50;5053182;28;20285;-62
2022/06/23 04:37:54;;;;;;;13.23;6.63;;;;;;;21.70;100.00;94134.66;5053123;28;20181;-63
2022/06/23 04:40:25;;;;;;;8.40;5.75;;;;;;;21.87;100.00;94134.97;5053041;28;20212;-63
2022/06/23 04:43:19;;;;;;;7.55;6.10;;;;;;;22.20;100.00;94143.22;5053221;28;20540;-63
2022/06/23 04:45:55;;;;;;;13.18;6.55;;;;;;;22.26;100.00;94131.25;5053077;28;20201;-62
2022/06/23 04:48:30;;;;;;;13.00;6.57;;;;;;;22.31;93.78;94158.09;5052990;28;20169;-60
2022/06/23 04:51:01;;;;;;;10.25;6.57;;;;;;;22.27;84.82;94203.56;5051934;28;20782;-59
2022/06/23 04:53:55;;;;;;;13.10;7.10;;;;;;;22.06;88.84;94161.72;5052929;28;20158;-61
2022/06/23 04:56:28;;;;;;;10.38;6.60;;;;;;;22.03;96.80;94129.25;5052871;28;20224;-60
2022/06/23 04:58:59;;;;;;;12.82;6.75;;;;;;;22.03;94.87;94151.75;5052597;28;20158;-61
2022/06/23 05:01:34;;;;;;;11.20;7.00;;;;;;;21.97;91.12;94158.59;5052656;28;20233;-61
2022/06/23 05:04:00;;;;;;;13.60;7.05;;;;;;;22.04;86.17;94182.59;5034660;28;20224;-62
2022/06/23 05:06:35;;;;;;;10.43;7.35;;;;;;;21.93;88.47;94147.06;5052697;28;20742;-62
2022/06/23 05:09:32;;;;;;;13.63;8.98;;;;;;;21.73;88.33;94143.81;5052283;28;20204;-62
2022/06/23 05:12:05;;;;;;;19.13;10.30;;;;;;;21.78;100.00;94131.00;5034480;28;20217;-60
2022/06/23 05:14:42;;;;;;;20.52;11.10;;;;;;;21.97;90.10;94160.38;5052414;28;20252;-59
2022/06/23 05:17:21;;;;;;;20.60;11.38;;;;;;;22.23;90.46;94175.69;5052736;28;20544;-61
2022/06/23 05:19:52;;;;;;;22.42;11.18;;;;;;;22.36;91.98;94147.09;5059237;22;20228;-62
2022/06/23 05:22:17;;;;;;;19.58;9.95;;;;;;;22.47;87.56;94187.81;5052294;28;20174;-61
2022/06/23 05:24:45;;;;;;;19.30;10.15;;;;;;;22.51;87.47;94174.25;5051860;28;20555;-62
2022/06/23 05:27:19;;;;;;;17.05;9.27;;;;;;;22.35;89.16;94168.81;5051110;28;20226;-62
2022/06/23 05:30:07;;;;;;;22.48;9.30;;;;;;;22.69;83.94;94212.38;5051964;28;20209;-61
2022/06/23 05:32:39;;;;;;;23.33;11.07;;;;;;;22.46;86.32;94153.34;5052043;28;20272;-63
2022/06/23 05:35:22;;;;;;;17.13;9.40;;;;;;;22.31;86.79;94146.94;5051956;28;20194;-61
2022/06/23 05:37:57;;;;;;;17.35;10.30;;;;;;;22.32;89.71;94146.72;5052186;28;20181;-62
2022/06/23 05:40:36;;;;;;;94.47;41.10;;;;;;;22.49;93.02;94134.00;5033920;28;20204;-62
2022/06/23 05:43:03;;;;;;;24.67;15.07;;;;;;;22.66;91.69;94150.59;5052139;28;20182;-62
2022/06/23 05:45:41;;;;;;;20.73;11.60;;;;;;;22.74;84.37;94193.59;5052171;28;20225;-61
2022/06/23 05:48:11;;;;;;;44.97;21.67;;;;;;;22.44;88.48;94141.63;5051622;28;20273;-61
2022/06/23 05:50:46;;;;;;;26.98;14.45;;;;;;;22.30;91.85;94146.13;5051700;28;20252;-61
2022/06/23 05:53:37;;;;;;;16.13;10.60;;;;;;;22.31;89.99;94196.94;5033658;28;20189;-63
2022/06/23 05:56:14;;;;;;;19.48;11.57;;;;;;;22.17;89.86;94249.06;5040982;28;20214;-63
2022/06/23 05:58:46;;;;;;;21.02;11.90;;;;;;;21.61;90.95;94414.56;5052033;28;20196;-61
2022/06/23 06:01:21;;;;;;;21.73;10.75;;;;;;;20.95;93.54;94491.34;5051212;28;20201;-63
2022/06/23 06:03:52;;;;;;;21.73;11.07;;;;;;;20.29;100.00;94490.38;5051883;28;20203;-59
2022/06/23 06:06:17;;;;;;;26.23;12.70;;;;;;;20.09;100.00;94402.50;5051585;28;20679;-61
2022/06/23 06:11:36;;;;;;;25.90;8.75;;;;;;;19.43;100.00;94296.69;5051648;28;20280;-60
2022/06/23 06:14:03;;;;;;;15.80;8.35;;;;;;;18.84;100.00;94329.81;5052011;28;20222;-60
2022/06/23 06:16:29;;;;;;;17.48;8.43;;;;;;;17.73;100.00;94378.44;5051494;28;20197;-59
2022/06/23 06:18:55;;;;;;;14.73;9.27;;;;;;;17.22;100.00;94392.97;5017366;28;20263;-62
2022/06/23 06:21:23;;;;;;;12.98;8.13;;;;;;;17.18;100.00;94378.06;5051543;28;20659;-61
2022/06/23 06:23:59;;;;;;;7.80;4.97;;;;;;;17.41;100.00;94360.81;5051756;28;20182;-61
2022/06/23 06:26:39;;;;;;;17.20;8.60;;;;;;;17.42;100.00;94354.66;5051270;28;20636;-62
2022/06/23 06:29:19;;;;;;;11.77;7.22;;;;;;;17.62;100.00;94335.16;5051965;28;20189;-60
2022/06/23 06:31:51;;;;;;;16.83;8.75;;;;;;;17.50;100.00;94336.59;5051337;28;20213;-61
2022/06/23 06:34:27;;;;;;;10.80;7.63;;;;;;;17.56;100.00;94317.91;5052289;28;20268;-62
2022/06/23 06:36:53;;;;;;;14.02;7.88;;;;;;;17.56;100.00;94305.84;5051633;28;20205;-62
2022/06/23 06:39:30;;;;;;;11.55;8.40;;;;;;;17.69;100.00;94300.06;5052475;28;20185;-61
2022/06/23 06:42:07;;;;;;;8.35;6.95;;;;;;;17.81;100.00;94302.94;5051493;28;20208;-61
2022/06/23 06:44:35;;;;;;;9.65;6.90;;;;;;;17.80;100.00;94304.72;5051901;28;20182;-62
2022/06/23 06:47:00;;;;;;;13.88;7.28;;;;;;;17.92;100.00;94298.13;5051254;28;20228;-61
2022/06/23 06:49:29;;;;;;;14.00;9.43;;;;;;;18.03;100.00;94297.66;5051765;28;20209;-61
2022/06/23 06:51:57;;;;;;;9.77;7.40;;;;;;;18.17;100.00;94291.63;5051369;28;20266;-59
2022/06/23 06:54:39;;;;;;;11.70;7.20;;;;;;;18.33;100.00;94278.50;5051824;28;20252;-60
2022/06/23 06:57:16;;;;;;;11.98;7.25;;;;;;;18.71;100.00;94265.31;5051407;28;20252;-60
2022/06/23 06:59:58;;;;;;;11.13;7.22;;;;;;;18.80;100.00;94271.94;5051174;28;20176;-62
2022/06/23 07:02:35;;;;;;;8.25;6.30;;;;;;;18.93;100.00;94275.38;5058217;22;20229;-61
2022/06/23 07:05:28;;;;;;;10.98;6.88;;;;;;;18.71;100.00;94270.47;5033118;28;20194;-62
2022/06/23 07:08:03;;;;;;;10.38;6.32;;;;;;;18.96;100.00;94279.38;5051319;28;20703;-61
2022/06/23 07:10:40;;;;;;;9.10;6.47;;;;;;;19.13;100.00;94275.47;5051089;28;20229;-60
2022/06/23 07:13:13;;;;;;;7.20;6.45;;;;;;;19.09;100.00;94275.06;5051645;28;20193;-63
2022/06/23 07:15:47;;;;;;;10.50;6.78;;;;;;;18.98;100.00;94283.34;5054982;28;20225;-61
2022/06/23 07:18:35;;;;;;;11.32;7.05;;;;;;;19.20;100.00;94284.06;5054805;28;20564;-63
2022/06/23 07:21:14;;;;;;;10.52;7.22;;;;;;;19.34;100.00;94285.72;5054852;28;20208;-61
2022/06/23 07:23:42;;;;;;;12.20;7.03;;;;;;;19.46;100.00;94283.38;5054708;28;20605;-61
2022/06/23 07:26:28;;;;;;;8.45;6.70;;;;;;;19.41;100.00;94286.56;5054808;28;20221;-61
2022/06/23 07:29:01;;;;;;;12.05;6.57;;;;;;;19.45;100.00;94290.34;5054584;28;20180;-61
2022/06/23 07:31:31;;;;;;;10.95;7.38;;;;;;;19.45;100.00;94298.09;5036507;28;20644;-60
2022/06/23 07:34:04;;;;;;;10.80;7.32;;;;;;;19.34;100.00;94315.88;5054573;28;20165;-60
2022/06/23 07:36:40;;;;;;;13.43;8.18;;;;;;;19.18;100.00;94311.78;5054761;28;20263;-60
2022/06/23 07:39:37;;;;;;;8.07;6.70;;;;;;;19.84;100.00;94308.53;5054505;28;20162;-61
2022/06/23 07:42:03;;;;;;;10.43;7.57;;;;;;;19.54;100.00;94316.75;5039084;28;20227;-59
2022/06/23 07:44:34;;;;;;;11.73;7.90;;;;;;;19.77;100.00;94320.63;5054361;28;20687;-60
2022/06/23 07:47:01;;;;;;;13.68;7.97;;;;;;;19.95;100.00;94325.22;5054099;28;20205;-59
2022/06/23 07:49:27;;;;;;;15.68;8.32;;;;;;;20.06;100.00;94330.63;5054190;28;20177;-62
2022/06/23 07:51:57;;;;;;;13.77;7.68;;;;;;;20.37;100.00;94329.31;5054396;28;20217;-62
2022/06/23 07:54:24;;;;;;;11.45;7.82;;;;;;;20.54;100.00;94330.53;5054267;28;20177;-65
2022/06/23 07:56:51;;;;;;;14.50;9.68;;;;;;;20.66;100.00;94341.84;5054340;28;20284;-61
2022/06/23 07:59:22;;;;;;;16.27;10.00;;;;;;;20.79;100.00;94352.16;5053959;28;20174;-62
2022/06/23 08:01:50;;;;;;;13.80;10.50;;;;;;;20.63;100.00;94335.28;5054015;28;20702;-64
2022/06/23 08:04:21;;;;;;;15.98;10.48;;;;;;;20.61;100.00;94341.63;5053843;28;20232;-62
2022/06/23 08:06:48;;;;;;;12.68;9.02;;;;;;;20.49;100.00;94335.47;5054121;28;20205;-63
2022/06/23 08:09:27;;;;;;;12.18;7.78;;;;;;;20.70;100.00;94348.22;5053847;28;20174;-63
2022/06/23 08:18:03;;;;;;;14.15;8.23;;;;;;;20.71;100.00;94350.59;5048849;28;20571;-59
2022/06/23 08:20:35;;;;;;;12.10;8.93;;;;;;;21.17;100.00;94350.56;5053964;28;20296;-60
2022/06/23 08:23:03;;;;;;;11.63;7.53;;;;;;;21.32;100.00;94350.34;5053686;28;20173;-59
2022/06/23 08:25:29;;;;;;;14.98;8.07;;;;;;;21.26;100.00;94348.56;5053624;28;20210;-61
2022/06/23 08:27:56;;;;;;;12.30;7.47;;;;;;;21.53;100.00;94356.06;5053499;28;20652;-62
2022/06/23 08:30:23;;;;;;;13.10;8.85;;;;;;;22.02;100.00;94357.31;5053936;28;20209;-60
2022/06/23 08:32:51;;;;;;;10.73;8.45;;;;;;;22.12;100.00;94334.34;5053616;28;20572;-62
2022/06/23 08:35:25;;;;;;;13.45;7.65;;;;;;;22.27;100.00;94332.25;5053437;28;20216;-64
2022/06/23 08:38:16;;;;;;;11.38;7.82;;;;;;;22.40;100.00;94338.13;5053249;28;20165;-63
2022/06/23 08:41:03;;;;;;;11.82;7.60;;;;;;;22.60;100.00;94368.34;5053439;28;20202;-63
2022/06/23 08:43:46;;;;;;;11.95;7.80;;;;;;;22.78;100.00;94368.41;5053078;28;20189;-62
2022/06/23 08:46:39;;;;;;;10.98;8.10;;;;;;;22.91;100.00;94319.84;5052996;28;20201;-61
2022/06/23 08:49:12;;;;;;;11.90;8.77;;;;;;;23.13;100.00;94318.44;5053752;28;20581;-62
2022/06/23 08:51:52;;;;;;;12.25;7.72;;;;;;;23.18;100.00;94325.56;5053049;28;20225;-61
2022/06/23 08:54:26;;;;;;;9.55;6.72;;;;;;;22.85;100.00;94361.38;5053069;28;20246;-61
2022/06/23 08:57:06;;;;;;;11.38;7.25;;;;;;;23.25;100.00;94358.22;5052866;28;20215;-63
2022/06/23 08:59:43;;;;;;;12.35;7.13;;;;;;;23.25;100.00;94350.44;5035235;28;20193;-65
2022/06/23 09:02:14;;;;;;;8.05;6.10;;;;;;;23.62;100.00;94374.66;5052931;28;20188;-64
2022/06/23 09:04:56;;;;;;;15.40;7.05;;;;;;;23.65;100.00;94369.03;5052918;28;20182;-62
2022/06/23 09:07:49;;;;;;;13.73;5.53;;;;;;;23.64;100.00;94418.56;5035703;28;20713;-61
2022/06/23 09:10:41;;;;;;;10.27;5.15;;;;;;;23.66;100.00;94426.91;5052742;28;20303;-61
2022/06/23 09:13:06;;;;;;;7.03;5.10;;;;;;;23.80;100.00;94381.63;5043565;28;20200;-61
2022/06/23 09:15:55;;;;;;;9.38;6.93;;;;;;;23.52;100.00;94425.47;5052955;28;20206;-62
2022/06/23 09:18:39;;;;;;;6.70;4.90;;;;;;;23.72;100.00;94405.28;5052208;28;20182;-60
2022/06/23 09:21:29;;;;;;;6.90;4.85;;;;;;;23.97;100.00;94374.84;5052936;28;20210;-59
2022/06/23 09:24:02;;;;;;;11.10;5.43;;;;;;;24.21;100.00;94435.53;5052699;28;20164;-62
2022/06/23 09:26:50;;;;;;;7.13;4.95;;;;;;;24.54;100.00;94342.34;5053346;28;20779;-64
2022/06/23 09:29:41;;;;;;;9.52;5.28;;;;;;;24.64;100.00;94373.78;5052666;28;20170;-63
2022/06/23 09:32:29;;;;;;;13.07;5.97;;;;;;;25.10;100.00;94423.31;5034583;28;20664;-63
2022/06/23 09:35:16;;;;;;;9.70;6.03;;;;;;;25.08;100.00;94341.28;5051948;28;20284;-62
2022/06/23 09:38:00;;;;;;;8.10;5.10;;;;;;;24.78;95.15;94461.81;5051733;28;20632;-62
2022/06/23 09:40:52;;;;;;;9.90;5.07;;;;;;;24.56;100.00;94314.31;5052599;28;20280;-62
2022/06/23 09:43:39;;;;;;;11.88;5.38;;;;;;;24.58;100.00;94344.28;5052526;28;20173;-63
2022/06/23 09:46:32;;;;;;;8.32;4.90;;;;;;;24.94;100.00;94280.91;5052677;28;20194;-65
2022/06/23 09:49:09;;;;;;;9.75;5.18;;;;;;;25.13;99.04;94399.44;5052358;28;20169;-62
2022/06/23 09:51:44;;;;;;;7.85;5.07;;;;;;;24.64;100.00;94327.78;5051867;28;20213;-61
2022/06/23 09:54:27;;;;;;;9.85;5.63;;;;;;;25.26;99.65;94373.22;5051928;28;20176;-60
2022/06/23 09:57:11;;;;;;;10.55;5.47;;;;;;;25.37;100.00;94358.63;5051884;28;20208;-61
2022/06/23 09:59:39;;;;;;;9.65;4.93;;;;;;;25.38;98.00;94397.44;5051850;28;20639;-61
2022/06/23 10:02:34;;;;;;;12.07;5.40;;;;;;;25.63;98.98;94379.00;5051775;28;20670;-61
2022/06/23 10:05:17;;;;;;;8.88;5.18;;;;;;;26.25;100.00;94351.31;5014335;28;20218;-61
2022/06/23 10:08:21;;;;;;;9.23;5.45;;;;;;;26.37;95.58;94425.84;5052046;28;20182;-61
2022/06/23 10:11:13;;;;;;;7.60;4.70;;;;;;;26.44;98.30;94371.75;5051784;28;20695;-61
2022/06/23 10:14:05;;;;;;;7.95;4.85;;;;;;;26.33;95.33;94424.75;5051900;28;20232;-63
2022/06/23 10:16:52;;;;;;;7.68;4.78;;;;;;;26.33;93.14;94444.81;5052405;28;20285;-62
2022/06/23 10:19:42;;;;;;;13.18;5.18;;;;;;;26.13;92.26;94447.00;5051641;28;20644;-61
2022/06/23 10:22:29;;;;;;;9.63;5.25;;;;;;;25.93;91.35;94460.38;5051859;28;20173;-63
2022/06/23 10:24:58;;;;;;;9.68;4.70;;;;;;;25.72;94.51;94393.22;5033810;28;20662;-62
2022/06/23 10:27:47;;;;;;;7.90;4.80;;;;;;;26.06;93.99;94412.44;5051767;28;20174;-63
2022/06/23 10:30:19;;;;;;;10.02;5.50;;;;;;;26.55;92.19;94423.06;5051472;28;20209;-63
2022/06/23 10:33:03;;;;;;;9.43;5.18;;;;;;;26.50;93.95;94383.84;5051850;28;20174;-63
2022/06/23 10:35:34;;;;;;;9.13;4.57;;;;;;;26.63;93.38;94383.56;5051895;28;20263;-63
2022/06/23 10:38:20;;;;;;;8.63;5.80;;;;;;;27.04;93.08;94384.25;5051513;28;20177;-64
2022/06/23 10:41:09;;;;;;;9.27;5.38;;;;;;;27.07;89.04;94462.09;5052005;28;20212;-62
2022/06/23 10:43:46;;;;;;;12.75;5.80;;;;;;;26.84;87.01;94467.44;5051784;28;20376;-63
2022/06/23 10:46:33;;;;;;;8.18;5.50;;;;;;;26.85;92.34;94343.75;5051754;28;20224;-63
2022/06/23 10:49:25;;;;;;;13.05;5.88;;;;;;;27.41;89.67;94414.13;5053129;28;20162;-63
2022/06/23 10:52:09;;;;;;;7.32;5.65;;;;;;;27.51;89.97;94403.00;5055602;28;20299;-63
2022/06/23 10:55:03;;;;;;;7.47;5.50;;;;;;;27.46;89.79;94387.25;5055395;28;20189;-63
2022/06/23 10:57:47;;;;;;;10.90;5.50;;;;;;;27.80;90.14;94386.16;5055881;28;20185;-63
2022/06/23 11:00:17;;;;;;;9.90;5.43;;;;;;;27.97;91.28;94360.78;5055419;28;20239;-63
2022/06/23 11:02:52;;;;;;;6.88;5.15;;;;;;;28.26;86.01;94464.16;5055283;28;20177;-64
2022/06/23 11:05:39;;;;;;;9.38;4.68;;;;;;;28.57;87.46;94429.50;5055458;28;20678;-62
2022/06/23 11:08:41;;;;;;;7.53;5.78;;;;;;;28.53;86.85;94430.19;5055109;28;20181;-64
2022/06/23 11:11:25;;;;;;;8.82;5.72;;;;;;;28.21;84.21;94464.91;5055255;28;20245;-63
2022/06/23 11:13:57;;;;;;;6.30;5.47;;;;;;;28.55;83.82;94470.81;5055049;28;20239;-63
2022/06/23 11:16:41;;;;;;;10.27;5.80;;;;;;;28.91;83.35;94466.72;5055381;28;20205;-64
2022/06/23 11:19:10;;;;;;;10.60;6.70;;;;;;;28.09;85.57;94414.53;5054945;28;20169;-59
2022/06/23 11:21:52;;;;;;;10.88;5.80;;;;;;;28.30;85.07;94409.56;5054946;28;20209;-59
2022/06/23 11:24:42;;;;;;;11.77;6.28;;;;;;;28.47;83.50;94439.81;5054820;28;20213;-60
2022/06/23 11:27:28;;;;;;;6.88;5.32;;;;;;;28.94;85.40;94417.31;5054839;28;20186;-59
2022/06/23 11:30:01;;;;;;;11.43;6.07;;;;;;;29.38;82.79;94477.41;5055087;28;20517;-60
2022/06/23 11:32:42;;;;;;;10.48;5.95;;;;;;;30.01;83.41;94466.06;5054594;28;20249;-61
2022/06/23 11:35:32;;;;;;;10.45;5.97;;;;;;;29.24;80.19;94487.50;5036589;28;20265;-60
2022/06/23 11:38:29;;;;;;;9.43;6.72;;;;;;;29.73;79.91;94464.59;5054741;28;20170;-60
2022/06/23 11:41:22;;;;;;;10.77;6.38;;;;;;;29.46;79.50;94479.56;5036582;28;20682;-61
2022/06/23 11:44:12;;;;;;;10.43;6.90;;;;;;;29.53;78.37;94486.16;5054504;28;20170;-61
2022/06/23 11:47:01;;;;;;;9.82;6.95;;;;;;;29.03;81.73;94404.53;5054093;28;20218;-59
2022/06/23 11:49:45;;;;;;;11.18;6.60;;;;;;;29.30;80.21;94454.28;5013628;28;20190;-59
2022/06/23 11:52:25;;;;;;;11.73;5.97;;;;;;;29.49;80.96;94435.28;5054166;28;20240;-60
2022/06/23 11:54:59;;;;;;;13.77;6.10;;;;;;;29.84;78.50;94480.13;5054284;28;20655;-62
2022/06/23 11:57:52;;;;;;;10.13;6.30;;;;;;;28.92;77.44;94505.78;5036185;28;20168;-61
2022/06/23 12:00:23;;;;;;;7.57;4.72;;;;;;;28.07;68.89;94526.41;5054007;28;20205;-63
2022/06/23 12:03:24;;;;;;;10.30;5.28;;;;;;;27.84;69.19;94465.66;5054263;28;20178;-60
2022/06/23 12:05:57;;;;;;;10.55;4.57;;;;;;;28.32;66.61;94454.56;5054303;28;20213;-63
2022/06/23 12:08:46;;;;;;;7.45;4.85;;;;;;;27.33;68.15;94411.88;5054021;28;20170;-60
2022/06/23 12:11:11;;;;;;;14.73;5.82;;;;;;;26.86;70.41;94355.78;5043459;28;20244;-63
2022/06/23 12:13:37;;;;;;;13.00;5.18;;;;;;;26.51;70.41;94340.31;5054003;28;20170;-66
2022/06/23 12:16:03;;;;;;;10.68;6.10;;;;;;;27.01;69.94;94356.00;5035991;28;20209;-60
2022/06/23 12:18:36;;;;;;;11.73;6.10;;;;;;;27.65;67.85;94384.16;5054097;28;20180;-61
2022/06/23 12:21:07;;;;;;;13.13;4.70;;;;;;;27.96;65.56;94441.03;5053494;28;20232;-63
2022/06/23 12:23:42;;;;;;;10.95;4.88;;;;;;;28.04;64.93;94440.63;5053834;28;20655;-61
2022/06/23 12:26:31;;;;;;;9.38;5.20;;;;;;;28.14;67.16;94403.34;5053500;28;20268;-61
2022/06/23 12:29:18;;;;;;;12.95;5.35;;;;;;;27.92;63.64;94465.25;5053652;28;20182;-60